Time;durP1;ratioP1;P1;durP2;ratioP2;P2;SDS_P1;SDS_P2;PMS_P1;PMS_P2;Temp;Humidity;BMP_temperature;BMP_pressure;BME280_temperature;BME280_humidity;BME280_pressure;Samples;Min_cycle;Max_cycle;Signal;HPM_P1;HPM_P2
2022/05/13 00:02:56;;;;;;;8.20;2.20;;;;;;;8.63;76.93;99753.19;105990;1273;75454;-72
2022/05/13 00:05:44;;;;;;;10.40;2.40;;;;;;;8.60;77.07;99751.25;106779;1273;59285;-73
2022/05/13 00:08:33;;;;;;;11.10;2.30;;;;;;;8.58;77.13;99744.71;107601;1273;60947;-74
2022/05/13 00:11:21;;;;;;;7.40;1.90;;;;;;;8.58;77.62;99748.95;107060;1273;73297;-73
2022/05/13 00:14:11;;;;;;;6.20;1.80;;;;;;;8.59;77.45;99748.36;108053;1273;68698;-72
2022/05/13 00:16:59;;;;;;;8.00;1.80;;;;;;;8.60;78.03;99748.83;104874;1274;72794;-74
2022/05/13 00:19:47;;;;;;;10.40;2.50;;;;;;;8.59;77.80;99750.08;105082;1274;60477;-73
2022/05/13 00:22:44;;;;;;;8.40;1.70;;;;;;;8.57;77.86;99748.48;104962;1273;61120;-73
2022/05/13 00:25:35;;;;;;;9.50;1.90;;;;;;;8.55;78.30;99750.43;104787;1273;75580;-75
2022/05/13 00:28:23;;;;;;;9.30;2.30;;;;;;;8.52;78.13;99748.83;105067;1273;68649;-72
2022/05/13 00:31:12;;;;;;;7.20;2.10;;;;;;;8.50;78.37;99745.06;105119;1274;73385;-73
2022/05/13 00:34:01;;;;;;;7.70;1.50;;;;;;;8.47;78.68;99749.02;105252;1274;60534;-73
2022/05/13 00:36:50;;;;;;;8.40;2.00;;;;;;;8.45;78.64;99752.17;105111;1274;60380;-74
2022/05/13 00:39:37;;;;;;;7.70;2.10;;;;;;;8.43;79.03;99751.11;104833;1274;74180;-74
2022/05/13 00:42:25;;;;;;;7.10;1.50;;;;;;;8.41;79.04;99752.48;105051;1274;67244;-72
2022/05/13 00:45:15;;;;;;;11.10;1.90;;;;;;;8.39;78.95;99751.55;104885;1273;73591;-73
2022/05/13 00:48:04;;;;;;;7.20;2.40;;;;;;;8.38;78.92;99753.55;104808;1275;60584;-72
2022/05/13 00:50:51;;;;;;;8.00;1.80;;;;;;;8.35;78.86;99748.09;104934;1274;60393;-72
2022/05/13 00:53:39;;;;;;;8.70;1.80;;;;;;;8.33;78.92;99748.80;105189;1274;74593;-72
2022/05/13 00:56:27;;;;;;;10.00;2.20;;;;;;;8.30;78.99;99742.64;105074;1273;68540;-73
2022/05/13 00:59:21;;;;;;;8.40;2.00;;;;;;;8.27;79.25;99749.73;105344;1273;74505;-72
2022/05/13 01:02:11;;;;;;;7.20;1.70;;;;;;;8.26;79.24;99747.76;104854;1274;61344;-72
2022/05/13 01:04:59;;;;;;;7.80;1.90;;;;;;;8.25;79.59;99741.08;104822;1274;60562;-72
2022/05/13 01:07:51;;;;;;;8.10;2.10;;;;;;;8.24;79.52;99743.80;104932;1274;75633;-72
2022/05/13 01:10:43;;;;;;;6.70;1.60;;;;;;;8.23;79.44;99749.20;105315;1273;67239;-74
2022/05/13 01:13:37;;;;;;;10.00;2.00;;;;;;;8.21;79.78;99743.17;104910;1274;73278;-77
2022/05/13 01:16:25;;;;;;;7.90;1.90;;;;;;;8.21;79.60;99745.12;105137;1274;61262;-74
2022/05/13 01:19:13;;;;;;;5.50;1.60;;;;;;;8.20;79.65;99753.12;104949;1274;61370;-74
2022/05/13 01:22:15;;;;;;;7.40;2.00;;;;;;;8.19;79.47;99756.53;105039;1274;74696;-75
2022/05/13 01:25:04;;;;;;;8.40;1.90;;;;;;;8.17;79.82;99755.23;105016;1273;68019;-73
2022/05/13 01:27:55;;;;;;;6.80;2.10;;;;;;;8.16;79.55;99755.85;104860;1276;73462;-73
2022/05/13 01:31:10;;;;;;;9.20;1.80;;;;;;;8.15;79.50;99753.62;104859;1274;60510;-74
2022/05/13 01:34:01;;;;;;;8.80;1.90;;;;;;;8.13;79.48;99753.23;105225;1274;62040;-74
2022/05/13 01:36:49;;;;;;;8.00;2.00;;;;;;;8.11;79.58;99755.14;104845;1274;74690;-70
2022/05/13 01:39:37;;;;;;;8.00;1.90;;;;;;;8.10;79.93;99754.39;105047;1273;68835;-73
2022/05/13 01:42:25;;;;;;;9.60;2.30;;;;;;;8.09;79.69;99753.75;105040;1274;73355;-74
2022/05/13 01:45:13;;;;;;;9.00;2.00;;;;;;;8.08;79.58;99749.94;105045;1274;60466;-73
2022/05/13 01:48:02;;;;;;;7.20;1.60;;;;;;;8.06;79.62;99746.34;104890;1274;60433;-72
2022/05/13 01:50:50;;;;;;;7.00;1.80;;;;;;;8.07;79.68;99746.64;104944;1274;74625;-73
2022/05/13 01:53:38;;;;;;;9.30;1.70;;;;;;;8.08;79.70;99741.23;105106;1273;66786;-72
2022/05/13 01:56:26;;;;;;;10.80;2.00;;;;;;;8.10;79.63;99742.91;104834;1274;73533;-72
2022/05/13 01:59:14;;;;;;;6.60;1.80;;;;;;;8.09;79.32;99738.50;105315;1273;60558;-73
2022/05/13 02:02:03;;;;;;;7.30;1.60;;;;;;;8.09;79.49;99740.45;105003;1274;60380;-75
2022/05/13 02:04:50;;;;;;;6.90;1.70;;;;;;;8.09;79.41;99741.52;104967;1274;74429;-73
2022/05/13 02:07:39;;;;;;;7.00;1.50;;;;;;;8.11;79.38;99739.11;104976;1274;69663;-72
2022/05/13 02:10:28;;;;;;;9.00;2.30;;;;;;;8.13;79.59;99742.30;105073;1273;73233;-73
2022/05/13 02:13:16;;;;;;;8.90;1.80;;;;;;;8.15;79.17;99735.96;104954;1274;60624;-75
2022/05/13 02:16:05;;;;;;;7.70;1.80;;;;;;;8.17;79.19;99739.90;105037;1274;60465;-75
2022/05/13 02:18:54;;;;;;;7.50;1.70;;;;;;;8.18;78.82;99739.42;104845;1274;74642;-73
2022/05/13 02:21:42;;;;;;;9.80;1.60;;;;;;;8.18;78.91;99741.91;104904;1274;68996;-73
2022/05/13 02:24:30;;;;;;;7.70;1.80;;;;;;;8.18;79.00;99738.95;104991;1274;74489;-72
2022/05/13 02:27:18;;;;;;;9.30;1.80;;;;;;;8.17;78.99;99741.10;104797;1274;61022;-73
2022/05/13 02:30:07;;;;;;;6.90;1.40;;;;;;;8.17;78.94;99734.94;104836;1274;61981;-74
2022/05/13 02:32:56;;;;;;;10.20;1.80;;;;;;;8.18;79.03;99742.14;105295;1273;74443;-73
2022/05/13 02:35:43;;;;;;;6.70;1.60;;;;;;;8.19;79.07;99738.52;105149;1274;67550;-72
2022/05/13 02:38:33;;;;;;;7.60;1.70;;;;;;;8.21;79.27;99736.42;104830;1274;74475;-73
2022/05/13 02:41:21;;;;;;;8.00;1.80;;;;;;;8.23;78.96;99737.33;104769;1274;60503;-72
2022/05/13 02:44:10;;;;;;;9.60;2.00;;;;;;;8.23;79.01;99739.45;104854;1274;60568;-75
2022/05/13 02:47:00;;;;;;;6.10;1.40;;;;;;;8.24;78.82;99742.20;104926;1275;73238;-71
2022/05/13 02:50:17;;;;;;;8.90;1.90;;;;;;;8.24;79.00;99741.48;104999;1274;68554;-73
2022/05/13 02:52:58;;;;;;;7.20;2.20;;;;;;;8.27;79.09;99738.45;104856;1274;74290;-72
2022/05/13 02:55:46;;;;;;;6.60;1.70;;;;;;;8.30;78.87;99736.63;104722;1274;60943;-73
2022/05/13 02:58:36;;;;;;;7.50;1.70;;;;;;;8.34;78.75;99733.02;105154;1273;60567;-74
2022/05/13 03:01:23;;;;;;;7.10;1.80;;;;;;;8.35;78.58;99731.51;105235;1274;75244;-73
2022/05/13 03:04:12;;;;;;;8.40;2.00;;;;;;;8.37;78.48;99732.27;104997;1274;69555;-70
2022/05/13 03:07:02;;;;;;;7.90;1.80;;;;;;;8.40;78.44;99734.54;105124;1273;74670;-73
2022/05/13 03:09:50;;;;;;;7.00;1.70;;;;;;;8.42;78.32;99736.64;104898;1274;60375;-71
2022/05/13 03:12:39;;;;;;;4.90;1.50;;;;;;;8.44;78.18;99734.92;104918;1274;61041;-73
2022/05/13 03:15:27;;;;;;;8.20;1.60;;;;;;;8.45;78.00;99733.46;104941;1273;73238;-74
2022/05/13 03:18:15;;;;;;;7.80;2.10;;;;;;;8.45;78.21;99734.14;104790;1276;66908;-74
2022/05/13 03:21:03;;;;;;;8.20;1.90;;;;;;;8.47;78.02;99733.49;105493;1274;71441;-73
2022/05/13 03:23:53;;;;;;;7.10;1.70;;;;;;;8.51;78.24;99729.47;107059;1273;59086;-73
2022/05/13 03:26:41;;;;;;;7.40;1.70;;;;;;;8.57;78.22;99722.54;104972;1274;60383;-73
2022/05/13 03:29:30;;;;;;;7.40;1.70;;;;;;;8.63;78.06;99724.86;105167;1273;74421;-73
2022/05/13 03:32:19;;;;;;;8.20;1.80;;;;;;;8.69;77.61;99724.98;104982;1274;66540;-73
2022/05/13 03:35:11;;;;;;;6.50;1.60;;;;;;;8.72;77.60;99725.64;104360;1273;1003058;-72
2022/05/13 03:37:59;;;;;;;5.90;1.70;;;;;;;8.75;77.48;99726.29;104583;1274;60501;-74
2022/05/13 03:40:47;;;;;;;8.10;1.70;;;;;;;8.80;77.27;99726.26;104795;1274;60536;-73
2022/05/13 03:43:41;;;;;;;7.20;1.80;;;;;;;8.83;77.03;99726.53;104828;1273;73587;-73
2022/05/13 03:46:29;;;;;;;6.70;1.60;;;;;;;8.87;76.98;99723.10;104912;1272;67858;-73
2022/05/13 03:49:17;;;;;;;7.00;1.80;;;;;;;8.91;76.88;99722.04;104753;1274;73789;-75
2022/05/13 03:52:05;;;;;;;8.70;1.70;;;;;;;8.94;76.72;99723.20;104796;1274;60470;-74
2022/05/13 03:54:53;;;;;;;8.90;1.50;;;;;;;8.98;76.70;99721.21;105197;1273;60463;-72
2022/05/13 03:57:41;;;;;;;9.00;1.90;;;;;;;9.00;76.31;99720.50;104814;1274;73643;-75
2022/05/13 04:00:30;;;;;;;5.90;1.50;;;;;;;9.04;76.20;99718.40;105228;1274;68614;-73
2022/05/13 04:03:19;;;;;;;8.40;1.90;;;;;;;9.07;76.26;99721.89;104799;1273;73353;-74
2022/05/13 04:09:13;;;;;;;7.80;1.70;;;;;;;9.16;75.69;99718.54;104773;1274;62212;-74
2022/05/13 04:18:16;;;;;;;10.50;1.90;;;;;;;9.36;75.07;99715.48;104965;1274;74474;-76
2022/05/13 04:21:14;;;;;;;6.10;1.50;;;;;;;9.41;74.70;99715.05;104928;1274;60659;-74
2022/05/13 04:24:07;;;;;;;7.80;1.60;;;;;;;9.49;74.21;99718.52;104768;1274;61297;-74
2022/05/13 04:26:55;;;;;;;8.20;1.80;;;;;;;9.57;73.97;99714.73;104974;1274;73636;-73
2022/05/13 04:29:43;;;;;;;7.80;1.80;;;;;;;9.64;73.75;99720.50;104689;1274;68306;-75
2022/05/13 04:32:31;;;;;;;9.30;2.70;;;;;;;9.73;73.79;99720.65;104784;1274;72152;-74
2022/05/13 04:35:19;;;;;;;9.20;1.90;;;;;;;9.83;73.41;99723.41;104967;1274;60800;-74
2022/05/13 04:38:08;;;;;;;6.30;1.60;;;;;;;9.96;72.89;99725.21;104955;1274;60504;-74
2022/05/13 04:40:56;;;;;;;6.70;1.60;;;;;;;10.11;72.31;99727.43;104806;1275;73387;-76
2022/05/13 04:43:44;;;;;;;7.30;1.80;;;;;;;10.25;71.91;99731.75;104802;1274;66587;-74
2022/05/13 04:46:32;;;;;;;10.10;2.10;;;;;;;10.40;71.46;99732.16;105037;1274;73481;-72
2022/05/13 04:49:20;;;;;;;8.00;2.10;;;;;;;10.59;71.20;99738.55;104752;1274;60463;-73
2022/05/13 04:52:13;;;;;;;8.30;2.00;;;;;;;10.83;70.46;99732.35;104731;1274;60477;-73
2022/05/13 04:55:02;;;;;;;9.40;1.90;;;;;;;11.08;69.68;99727.23;105077;1274;74713;-73
2022/05/13 04:57:50;;;;;;;8.50;1.60;;;;;;;11.28;68.36;99728.16;104862;1274;68669;-75
2022/05/13 05:00:37;;;;;;;9.80;1.80;;;;;;;11.41;67.57;99729.69;104808;1273;72182;-71
2022/05/13 05:03:28;;;;;;;7.80;2.00;;;;;;;11.51;67.46;99727.40;104951;1274;60472;-74
2022/05/13 05:06:20;;;;;;;10.50;1.70;;;;;;;11.64;67.14;99732.36;104908;1273;60469;-74
2022/05/13 05:09:07;;;;;;;9.20;1.60;;;;;;;11.84;66.67;99737.19;104917;1274;74440;-74
2022/05/13 05:11:55;;;;;;;8.60;1.60;;;;;;;12.29;65.53;99738.91;104884;1274;68591;-72
2022/05/13 05:14:44;;;;;;;7.10;1.60;;;;;;;13.32;62.32;99735.39;104767;1274;73470;-73
2022/05/13 05:17:31;;;;;;;8.50;1.40;;;;;;;14.44;59.30;99735.89;105743;1274;60444;-73
2022/05/13 05:20:23;;;;;;;10.10;1.60;;;;;;;15.49;54.28;99730.28;105121;1274;60332;-72
2022/05/13 05:23:27;;;;;;;8.70;1.90;;;;;;;16.58;52.47;99727.22;104921;1274;75691;-75
2022/05/13 05:26:15;;;;;;;7.60;1.60;;;;;;;17.71;49.18;99725.55;104766;1274;69425;-73
2022/05/13 05:29:03;;;;;;;6.80;1.60;;;;;;;18.49;46.04;99730.20;104527;1275;72157;-75
2022/05/13 05:31:55;;;;;;;6.40;1.60;;;;;;;18.87;44.81;99727.35;104960;1274;60450;-75
2022/05/13 05:34:45;;;;;;;9.20;1.60;;;;;;;19.68;43.28;99719.79;104852;1275;59362;-72
2022/05/13 05:37:34;;;;;;;9.40;2.60;;;;;;;20.19;42.14;99719.31;105240;1274;74394;-73
2022/05/13 05:40:23;;;;;;;7.80;2.20;;;;;;;20.84;40.21;99719.45;105221;1274;68637;-70
2022/05/13 05:43:15;;;;;;;7.80;1.60;;;;;;;21.04;39.10;99722.52;104950;1274;72860;-69
2022/05/13 05:46:05;;;;;;;7.70;1.60;;;;;;;21.00;38.85;99719.80;104860;1273;60508;-69
2022/05/13 05:48:54;;;;;;;7.10;1.50;;;;;;;21.34;38.64;99715.53;105043;1274;60555;-69
2022/05/13 05:51:44;;;;;;;7.00;1.50;;;;;;;21.62;37.66;99712.29;104969;1274;75596;-69
2022/05/13 05:58:06;;;;;;;6.90;1.40;;;;;;;21.57;37.03;99720.33;105348;1274;71924;-70
2022/05/13 06:00:54;;;;;;;7.70;1.40;;;;;;;21.12;37.38;99719.14;105159;1273;60702;-70
2022/05/13 06:03:42;;;;;;;8.10;2.20;;;;;;;21.43;36.73;99714.27;104987;1273;60449;-69
2022/05/13 06:06:32;;;;;;;9.10;1.50;;;;;;;21.82;36.80;99714.96;104737;1274;74404;-71
2022/05/13 06:09:20;;;;;;;8.50;1.50;;;;;;;22.14;35.90;99715.63;104840;1273;68130;-70
2022/05/13 06:12:10;;;;;;;8.30;1.70;;;;;;;22.46;35.01;99714.44;104632;1274;73335;-71
2022/05/13 06:14:58;;;;;;;7.20;1.70;;;;;;;22.86;34.57;99710.85;104971;1273;60449;-70
2022/05/13 06:17:56;;;;;;;7.00;1.40;;;;;;;23.01;34.04;99716.45;104931;1273;60692;-72
2022/05/13 06:20:44;;;;;;;8.60;1.60;;;;;;;22.59;34.58;99717.21;104740;1273;75531;-71
2022/05/13 06:23:32;;;;;;;7.30;1.50;;;;;;;22.56;34.87;99715.70;104847;1276;66292;-69
2022/05/13 06:26:21;;;;;;;8.20;1.70;;;;;;;22.69;34.98;99711.93;104595;1274;72414;-71
2022/05/13 06:29:09;;;;;;;8.10;1.50;;;;;;;22.52;34.61;99705.52;104890;1273;60379;-71
2022/05/13 06:31:59;;;;;;;10.00;1.80;;;;;;;22.61;34.38;99714.05;104992;1273;60461;-69
2022/05/13 06:34:47;;;;;;;10.10;1.50;;;;;;;22.84;33.88;99707.27;104631;1273;75698;-70
2022/05/13 06:37:36;;;;;;;5.30;1.00;;;;;;;22.43;34.23;99713.43;104672;1273;68668;-71
2022/05/13 06:40:24;;;;;;;8.40;1.40;;;;;;;22.47;34.11;99709.70;104876;1273;73364;-71
2022/05/13 06:43:12;;;;;;;8.40;1.50;;;;;;;22.91;33.84;99709.85;104618;1274;60443;-73
2022/05/13 06:46:00;;;;;;;8.10;1.40;;;;;;;23.46;33.10;99709.27;104939;1272;61058;-70
2022/05/13 06:48:48;;;;;;;7.70;1.40;;;;;;;23.76;32.47;99702.92;104938;1273;74296;-70
2022/05/13 06:51:36;;;;;;;7.90;1.40;;;;;;;23.91;32.08;99703.13;104917;1273;68649;-69
2022/05/13 06:54:24;;;;;;;7.40;1.30;;;;;;;24.67;30.62;99703.48;104662;1273;72895;-69
2022/05/13 06:57:12;;;;;;;6.90;1.60;;;;;;;25.43;29.71;99696.86;104892;1273;60457;-70
2022/05/13 06:59:59;;;;;;;8.60;1.40;;;;;;;25.99;28.43;99695.17;104968;1273;60478;-70
2022/05/13 07:02:49;;;;;;;8.90;2.40;;;;;;;25.71;28.60;99694.77;104983;1272;73022;-69
2022/05/13 07:05:37;;;;;;;7.80;1.50;;;;;;;26.00;28.12;99688.88;105252;1273;66874;-70
2022/05/13 07:08:25;;;;;;;8.10;1.40;;;;;;;26.30;27.62;99691.54;105191;1273;72921;-70
2022/05/13 07:11:13;;;;;;;7.90;1.20;;;;;;;26.23;27.08;99686.96;105062;1274;60581;-72
2022/05/13 07:14:02;;;;;;;5.90;1.20;;;;;;;24.95;28.12;99691.09;105060;1274;60598;-70
2022/05/13 07:16:50;;;;;;;6.90;1.10;;;;;;;25.04;28.22;99692.33;105130;1274;74382;-70
2022/05/13 07:19:38;;;;;;;7.40;1.20;;;;;;;25.17;28.18;99693.73;105128;1274;67943;-71
2022/05/13 07:22:26;;;;;;;7.30;1.30;;;;;;;25.82;27.38;99680.33;105098;1273;74380;-71
2022/05/13 07:25:13;;;;;;;7.30;1.30;;;;;;;26.47;26.70;99684.75;105426;1273;60428;-70
2022/05/13 07:28:02;;;;;;;5.60;1.00;;;;;;;26.78;26.08;99679.93;104919;1274;61056;-70
2022/05/13 07:30:50;;;;;;;8.80;1.20;;;;;;;27.39;25.38;99679.73;105014;1274;75643;-72
2022/05/13 07:33:38;;;;;;;7.00;1.30;;;;;;;27.67;24.71;99673.51;105053;1274;68102;-70
2022/05/13 07:36:26;;;;;;;5.90;1.00;;;;;;;28.15;23.66;99673.02;104933;1274;74410;-70
2022/05/13 07:42:20;;;;;;;7.60;1.30;;;;;;;28.61;22.56;99678.29;105359;1273;60536;-75
2022/05/13 07:45:09;;;;;;;7.70;1.20;;;;;;;28.52;23.07;99669.27;105095;1274;72984;-72
2022/05/13 07:47:57;;;;;;;9.20;1.30;;;;;;;28.10;23.43;99668.17;105056;1273;69620;-68
2022/05/13 07:50:45;;;;;;;8.60;1.30;;;;;;;28.15;22.88;99671.89;105066;1273;72872;-71
2022/05/13 07:53:33;;;;;;;7.30;1.40;;;;;;;28.20;22.32;99667.99;104798;1273;60514;-71
2022/05/13 07:56:21;;;;;;;5.20;1.00;;;;;;;27.25;22.78;99672.88;105336;1274;62005;-70
2022/05/13 07:59:08;;;;;;;7.00;1.10;;;;;;;25.99;23.82;99672.23;104960;1274;74051;-69
2022/05/13 08:01:56;;;;;;;5.60;1.10;;;;;;;26.04;23.92;99668.45;104974;1274;68792;-68
2022/05/13 08:04:44;;;;;;;6.80;1.20;;;;;;;25.79;24.20;99665.32;104846;1274;72567;-71
2022/05/13 08:07:32;;;;;;;5.60;1.10;;;;;;;26.08;23.28;99670.03;105092;1274;61173;-66
2022/05/13 08:10:20;;;;;;;6.60;1.00;;;;;;;26.51;23.24;99668.54;105016;1274;62029;-70
2022/05/13 08:13:08;;;;;;;6.00;1.10;;;;;;;26.33;23.11;99667.41;105144;1274;75534;-71
2022/05/13 08:16:04;;;;;;;6.60;1.20;;;;;;;25.50;24.17;99666.45;104705;1274;67578;-73
2022/05/13 08:18:57;;;;;;;5.60;1.00;;;;;;;24.61;25.07;99666.92;105280;1273;73473;-71
2022/05/13 08:21:45;;;;;;;5.30;0.90;;;;;;;24.39;25.03;99663.57;104880;1274;60541;-71
2022/05/13 08:24:33;;;;;;;6.00;1.10;;;;;;;24.23;25.22;99666.89;104853;1273;60478;-71
2022/05/13 08:27:21;;;;;;;8.00;1.20;;;;;;;23.65;26.49;99671.19;105157;1273;75537;-74
2022/05/13 08:30:10;;;;;;;6.70;1.30;;;;;;;23.02;26.65;99674.55;104790;1274;70428;-69
2022/05/13 08:33:01;;;;;;;6.30;1.10;;;;;;;22.70;27.11;99676.34;104697;1272;73470;-69
2022/05/13 08:35:55;;;;;;;5.80;1.00;;;;;;;22.53;27.53;99678.33;105388;1273;60449;-71
2022/05/13 08:38:44;;;;;;;5.50;0.90;;;;;;;22.63;27.33;99668.62;104693;1273;62172;-72
2022/05/13 08:42:21;;;;;;;7.30;1.00;;;;;;;22.15;28.02;99669.52;104790;1273;73548;-67
2022/05/13 08:45:11;;;;;;;7.00;1.10;;;;;;;21.78;28.70;99676.11;104984;1273;65729;-69
2022/05/13 08:48:01;;;;;;;5.20;1.00;;;;;;;21.40;29.32;99678.77;105050;1273;72500;-69
2022/05/13 08:51:18;;;;;;;4.40;0.90;;;;;;;21.69;28.98;99678.24;105062;1273;60530;-68
2022/05/13 08:54:22;;;;;;;8.80;1.20;;;;;;;21.15;29.20;99675.84;104848;1273;60477;-66
2022/05/13 08:57:11;;;;;;;7.60;1.30;;;;;;;20.57;29.95;99676.35;104636;1273;72933;-69
2022/05/13 09:00:08;;;;;;;7.70;1.60;;;;;;;19.99;31.10;99683.89;104866;1274;68080;-67
2022/05/13 09:03:13;;;;;;;6.00;1.30;;;;;;;19.45;31.96;99682.77;104715;1273;73252;-67
2022/05/13 09:06:11;;;;;;;6.30;1.00;;;;;;;19.29;32.62;99680.35;104935;1274;60515;-69
2022/05/13 09:09:11;;;;;;;6.40;1.20;;;;;;;18.96;32.53;99679.11;104737;1274;356014;-69
2022/05/13 09:12:24;;;;;;;8.10;1.40;;;;;;;19.01;32.38;99673.95;105846;1273;75489;-68
2022/05/13 09:15:19;;;;;;;5.20;1.10;;;;;;;19.16;32.45;99669.16;105263;1273;68058;-64
2022/05/13 09:18:26;;;;;;;9.60;1.90;;;;;;;19.23;32.66;99671.85;105142;1274;71692;-68
2022/05/13 09:21:20;;;;;;;6.00;1.30;;;;;;;19.32;32.59;99669.59;104877;1274;60626;-67
2022/05/13 09:24:08;;;;;;;6.10;1.50;;;;;;;19.22;32.31;99670.59;104988;1273;62146;-68
2022/05/13 09:26:57;;;;;;;5.90;1.40;;;;;;;19.39;32.06;99671.10;105196;1273;73509;-67
2022/05/13 09:29:45;;;;;;;5.60;1.30;;;;;;;19.51;32.05;99667.79;104721;1274;68555;-65
2022/05/13 09:32:33;;;;;;;6.30;1.30;;;;;;;19.13;32.29;99665.01;104799;1273;73532;-69
2022/05/13 09:35:35;;;;;;;8.10;1.50;;;;;;;18.98;32.55;99666.98;104714;1272;60524;-66
2022/05/13 09:38:29;;;;;;;7.00;1.60;;;;;;;18.67;32.35;99665.02;105083;1273;61132;-68
2022/05/13 09:41:43;;;;;;;8.30;1.50;;;;;;;18.49;32.85;99657.91;104998;1273;75813;-70
2022/05/13 09:44:38;;;;;;;7.40;1.70;;;;;;;18.44;33.12;99657.87;105238;1273;67920;-70
2022/05/13 09:47:30;;;;;;;7.60;1.70;;;;;;;18.36;33.40;99657.14;104860;1274;73544;-69
2022/05/13 09:50:42;;;;;;;6.10;1.20;;;;;;;18.44;33.36;99656.98;105154;1271;60595;-70
2022/05/13 09:53:33;;;;;;;9.00;1.50;;;;;;;18.33;33.84;99651.91;107393;1274;61078;-67
2022/05/13 09:56:22;;;;;;;6.50;1.40;;;;;;;18.38;33.89;99655.08;107262;1273;72810;-69
2022/05/13 09:59:26;;;;;;;7.20;1.40;;;;;;;18.46;33.89;99655.53;107576;1273;65806;-67
2022/05/13 10:02:17;;;;;;;8.20;1.40;;;;;;;18.39;33.88;99654.16;105226;1273;73229;-69
2022/05/13 10:05:25;;;;;;;6.70;1.60;;;;;;;18.33;33.87;99652.09;104945;1273;60549;-69
2022/05/13 10:08:21;;;;;;;5.30;1.10;;;;;;;18.10;33.88;99652.24;105102;1273;61418;-73
2022/05/13 10:14:30;;;;;;;6.90;1.20;;;;;;;17.84;33.52;99646.60;105079;1274;69485;-72
2022/05/13 10:17:24;;;;;;;7.20;1.40;;;;;;;18.07;33.64;99641.66;105164;1272;73928;-74
2022/05/13 10:20:27;;;;;;;6.70;1.60;;;;;;;18.44;33.61;99646.38;104822;1273;60401;-67
2022/05/13 10:23:34;;;;;;;7.20;1.20;;;;;;;18.91;32.77;99642.45;104873;1273;61050;-68
2022/05/13 10:26:31;;;;;;;6.80;1.10;;;;;;;18.93;32.39;99634.35;104931;1273;75555;-71
2022/05/13 10:29:32;;;;;;;7.10;1.30;;;;;;;18.68;32.49;99643.31;104958;1273;69683;-70
2022/05/13 10:32:33;;;;;;;8.40;1.20;;;;;;;18.41;32.91;99645.05;104718;1273;72418;-69
2022/05/13 10:35:29;;;;;;;8.90;1.50;;;;;;;18.27;34.24;99645.76;104884;1273;60487;-71
2022/05/13 10:38:35;;;;;;;8.70;1.60;;;;;;;18.24;34.16;99643.80;104865;1273;60650;-70
2022/05/13 10:41:36;;;;;;;7.00;1.50;;;;;;;18.34;34.28;99649.65;104841;1273;72845;-68
2022/05/13 10:44:59;;;;;;;6.00;1.20;;;;;;;18.76;33.95;99635.25;104875;1273;67657;-70
2022/05/13 10:48:04;;;;;;;6.40;1.30;;;;;;;19.68;32.99;99632.83;105087;1273;71764;-68
2022/05/13 10:51:18;;;;;;;6.90;1.30;;;;;;;20.32;31.02;99624.89;104722;1273;60362;-68
2022/05/13 10:54:24;;;;;;;6.50;1.00;;;;;;;20.61;30.33;99620.16;105073;1274;60990;-69
2022/05/13 10:57:45;;;;;;;6.50;1.20;;;;;;;20.43;30.50;99636.52;104965;1274;75784;-69
2022/05/13 11:01:00;;;;;;;6.30;1.30;;;;;;;19.67;30.96;99638.55;104948;1273;68547;-69
2022/05/13 11:04:29;;;;;;;6.20;1.20;;;;;;;19.42;31.68;99637.77;104638;1274;72902;-70
2022/05/13 11:07:33;;;;;;;4.90;1.10;;;;;;;19.43;31.42;99636.63;104863;1276;60559;-68
2022/05/13 11:10:40;;;;;;;5.70;1.10;;;;;;;19.33;31.55;99637.78;104779;1274;62164;-69
2022/05/13 11:13:52;;;;;;;6.00;1.30;;;;;;;19.08;31.06;99632.16;105098;1274;74279;-71
2022/05/13 11:17:31;;;;;;;8.60;1.70;;;;;;;18.90;31.17;99638.27;105074;1274;69601;-68
2022/05/13 11:20:38;;;;;;;6.80;1.80;;;;;;;18.55;31.56;99643.59;105000;1274;72925;-68
2022/05/13 11:27:20;;;;;;;6.80;1.40;;;;;;;18.07;32.82;99645.43;105056;1274;60490;-67
2022/05/13 11:30:19;;;;;;;7.10;1.60;;;;;;;17.94;33.46;99642.42;104891;1274;72666;-69
2022/05/13 11:33:44;;;;;;;9.10;1.50;;;;;;;17.88;33.77;99642.70;104834;1274;68606;-69
2022/05/13 11:36:49;;;;;;;7.50;1.50;;;;;;;17.80;33.53;99640.73;104941;1274;71115;-69
2022/05/13 11:40:15;;;;;;;5.60;1.20;;;;;;;17.80;33.84;99637.71;104751;1274;60542;-68
2022/05/13 11:43:39;;;;;;;7.20;1.30;;;;;;;17.80;33.14;99633.75;104882;1274;62106;-70
2022/05/13 11:47:04;;;;;;;7.70;1.40;;;;;;;17.79;33.05;99624.58;104888;1274;74020;-71
2022/05/13 11:49:52;;;;;;;10.20;1.50;;;;;;;17.87;32.79;99626.50;104860;1274;66740;-72
2022/05/13 11:52:46;;;;;;;7.20;1.30;;;;;;;17.96;33.08;99631.19;104652;1274;74521;-70
2022/05/13 11:55:47;;;;;;;7.20;1.20;;;;;;;18.15;33.16;99629.39;104878;1274;60502;-72
2022/05/13 11:58:54;;;;;;;6.60;1.30;;;;;;;18.26;32.93;99633.52;104888;1274;62362;-71
2022/05/13 12:01:45;;;;;;;8.60;1.40;;;;;;;18.25;32.33;99623.55;104904;1274;75443;-70
2022/05/13 12:04:38;;;;;;;6.70;1.30;;;;;;;18.28;32.39;99628.26;105149;1274;67363;-72
2022/05/13 12:07:37;;;;;;;8.50;1.50;;;;;;;18.25;33.04;99631.14;104939;1274;71333;-67
2022/05/13 12:10:34;;;;;;;5.90;1.10;;;;;;;18.24;32.97;99631.03;104841;1274;60515;-71
2022/05/13 12:13:30;;;;;;;5.40;1.20;;;;;;;18.12;32.90;99632.50;104940;1274;61060;-70
2022/05/13 12:17:00;;;;;;;6.10;1.20;;;;;;;17.88;33.59;99635.71;105106;1274;74670;-66
2022/05/13 12:20:16;;;;;;;7.40;1.20;;;;;;;17.71;33.83;99635.51;104981;1273;66746;-69
2022/05/13 12:23:30;;;;;;;8.10;1.60;;;;;;;17.61;33.96;99632.67;104896;1273;73855;-67
2022/05/13 12:26:24;;;;;;;5.80;1.30;;;;;;;17.52;33.62;99631.91;104867;1273;60460;-70
2022/05/13 12:29:20;;;;;;;5.30;1.30;;;;;;;17.50;33.91;99629.73;104921;1273;60560;-69
2022/05/13 12:32:35;;;;;;;7.80;1.50;;;;;;;17.38;34.26;99634.82;104738;1273;74777;-68
2022/05/13 12:39:08;;;;;;;7.90;1.40;;;;;;;17.09;34.95;99633.98;105112;1273;74563;-68
2022/05/13 12:42:10;;;;;;;7.30;1.50;;;;;;;17.07;35.23;99639.92;104635;1273;60458;-66
2022/05/13 12:45:00;;;;;;;5.90;1.40;;;;;;;17.06;35.43;99641.77;105094;1273;60462;-67
2022/05/13 12:48:06;;;;;;;6.50;1.30;;;;;;;16.94;35.33;99645.55;104705;1273;74382;-66
2022/05/13 12:51:19;;;;;;;7.10;1.30;;;;;;;16.78;35.48;99649.29;105083;1273;66530;-68
2022/05/13 12:54:09;;;;;;;9.30;1.40;;;;;;;16.75;35.69;99650.70;104896;1273;72899;-69
2022/05/13 12:57:13;;;;;;;5.70;1.30;;;;;;;16.71;35.66;99653.83;105073;1273;60566;-70
2022/05/13 13:00:36;;;;;;;6.40;1.60;;;;;;;16.75;35.71;99660.98;105092;1273;60455;-69
2022/05/13 13:03:25;;;;;;;7.80;1.40;;;;;;;16.68;35.31;99661.02;104964;1273;74582;-70
2022/05/13 13:06:20;;;;;;;7.20;1.70;;;;;;;16.62;35.73;99657.34;104842;1273;68056;-69
2022/05/13 13:09:31;;;;;;;7.30;1.40;;;;;;;16.52;35.63;99656.78;105001;1273;74454;-71
2022/05/13 13:12:40;;;;;;;9.20;1.50;;;;;;;16.50;35.63;99651.69;104824;1273;60808;-73
2022/05/13 13:15:56;;;;;;;10.30;1.60;;;;;;;16.44;36.00;99645.91;104835;1273;60381;-71
2022/05/13 13:18:44;;;;;;;8.70;1.30;;;;;;;16.55;36.10;99646.08;105118;1273;74157;-68
2022/05/13 13:21:32;;;;;;;7.10;1.50;;;;;;;16.69;35.77;99651.88;105143;1273;67236;-69
2022/05/13 13:24:27;;;;;;;6.60;1.30;;;;;;;16.83;35.75;99647.48;104860;1273;71603;-70
2022/05/13 13:27:19;;;;;;;6.20;1.50;;;;;;;17.14;35.56;99643.78;104855;1273;60457;-67
2022/05/13 13:30:21;;;;;;;7.40;1.40;;;;;;;17.53;34.72;99648.68;104899;1273;60471;-68
2022/05/13 13:33:10;;;;;;;8.10;1.50;;;;;;;17.76;34.54;99638.34;104931;1273;75607;-68
2022/05/13 13:36:13;;;;;;;7.30;1.40;;;;;;;17.76;34.13;99640.29;104842;1273;66295;-69
2022/05/13 13:39:01;;;;;;;7.80;1.40;;;;;;;18.00;34.09;99636.06;104593;1273;71763;-69
2022/05/13 13:41:59;;;;;;;6.40;1.20;;;;;;;18.07;33.57;99640.76;104852;1273;60489;-65
2022/05/13 13:45:22;;;;;;;8.40;1.50;;;;;;;18.03;33.49;99647.22;104547;1273;61241;-67
2022/05/13 13:48:19;;;;;;;7.50;1.40;;;;;;;18.03;33.61;99637.81;104838;1273;72085;-65
2022/05/13 13:51:16;;;;;;;7.10;1.60;;;;;;;18.09;33.30;99632.27;104668;1274;69710;-72
2022/05/13 13:54:07;;;;;;;6.50;1.40;;;;;;;18.00;33.31;99636.48;105078;1273;71511;-73
2022/05/13 13:57:13;;;;;;;6.70;1.40;;;;;;;17.93;33.25;99629.88;105137;1273;60604;-72
2022/05/13 14:00:10;;;;;;;6.70;1.30;;;;;;;17.93;33.26;99619.61;105347;1273;60911;-72